Index of /photos/velo/avant/Jeanson/

NameLast ModifiedSize
UpParent Directory
Directory02023-02-24 01:37-
Directory12023-02-24 01:37-
Directory152023-02-24 01:37-
Directory182023-02-24 01:37-
Directory212023-02-24 01:37-
Directory222023-02-24 01:37-
Directory242024-12-26 04:48-
Directory252025-09-20 04:03-
Directory32023-02-24 01:37-
Directory42023-02-24 01:37-
Directory52023-02-24 01:37-
Directory62023-02-24 01:37-
Directory72023-02-24 01:37-
Directory82023-02-24 01:37-
Directory992023-02-24 01:37-
Directory_vti_cnf2023-02-24 01:37-
Directorydope2023-02-24 01:37-
[IMG]23marsW410H400.jpg2023-02-24 01:37 44k
[IMG]4661GenMene631H400.jpg2023-02-24 01:37 105k
[IMG]4680GenGagne641H400.jpg2023-02-24 01:37 87k
[IMG]48Jeanson295H400.jpg2023-02-24 01:37 38k
[IMG]75Jeanson621H400.jpg2023-02-24 01:37 86k
[IMG]AndreCloutierW223H400.jpg2023-02-24 01:37 37k
[IMG]AubutGenSourires28maiAB388H400.jpg2023-02-24 01:37 66k
[IMG]AventureOlymp.gif2023-02-24 01:37 16k
[IMG]ColoradoAltitudeTentW235H144.jpg2023-02-24 01:37 17k
[IMG]Cyberpresse12octw326H368.jpg2023-02-24 01:37 58k
[IMG]Cyberpresse24octW312H368.jpg2023-02-24 01:37 62k
[IMG]DamesRecuperW584H400.jpg2023-02-24 01:37 57k
[IMG]DLaroucheGJeanson1aoutW343H254.jpg2023-02-24 01:37 39k
[IMG]EprexW185H144.jpg2023-02-24 01:37 29k
[IMG]famillejeanson569H379.jpg2023-02-24 01:37 24k
[IMG]Gen186W245H400MC.jpg2023-02-24 01:37 44k
[IMG]Gen5mars266H400.jpg2023-02-24 01:37 28k
[IMG]Gen_Lyne_course_DB3.jpg2023-02-24 01:37 100k
[IMG]Gen_Momentum_nov99.jpg2023-02-24 01:37 75k
[IMG]Genevieve2003W295H400.jpg2023-02-24 01:37 35k
[IMG]Genevieve_Snowy_pod236H409.jpg2023-02-24 01:37 44k
[IMG]GenevieveGagnante6maiH216W200.jpg2023-02-24 01:37 27k
[IMG]GenJeansonSuperman574H799.jpg2023-02-24 01:37 73k
[IMG]GenMtRoyalW270H400MC.jpg2023-02-24 01:37 57k
[IMG]Gila1maiW432H352.jpg2023-02-24 01:37 30k
[IMG]GJeanson31maiW355H400MC.jpg2023-02-24 01:37 71k
[IMG]hematocriteW386H300.jpg2023-02-24 01:37 22k
[IMG]Jeanson14fevW412H300.jpg2023-02-24 01:37 44k
[IMG]Jeanson14mars01H295W394.jpg2023-02-24 01:37 83k
[IMG]Jeanson15mars01H380W316.jpg2023-02-24 01:37 85k
[IMG]Jeanson17nov82H144.jpg2023-02-24 01:37 20k
[IMG]Jeanson2003W331H350.jpg2023-02-24 01:37 43k
[IMG]Jeanson21avr266H400.jpg2023-02-24 01:37 39k
[IMG]Jeanson29mai318H400.jpg2023-02-24 01:37 67k
[IMG]Jeanson2juin01H377W196.jpg2023-02-24 01:37 58k
[IMG]Jeanson460H464.jpg2023-02-24 01:37 75k
[IMG]Jeanson8octW133H268.jpg2023-02-24 01:37 22k
[IMG]Jeanson_Genevieve.jpg2023-02-24 01:37 23k
[IMG]Jeanson_Probst_8oct99.jpg2023-02-24 01:37 17k
[IMG]JeansonChien604H400.jpg2023-02-24 01:37 78k
[IMG]JeansonCyberpresse17novW332H386.jpg2023-02-24 01:37 68k
[IMG]JeansonGagne320H400.jpg2023-02-24 01:37 77k
[IMG]JeansonJutrasBessette4avrW468H279.jpg2023-02-24 01:37 57k
[IMG]JeansonPresse11octW334H368.jpg2023-02-24 01:37 73k
[IMG]JeansonRedlands14mars01H295W261.gif2023-02-24 01:37 60k
[IMG]JeansonVaGagner259H400.jpg2023-02-24 01:37 49k
[IMG]JeansonVeloDemarreW484H400.jpg2023-02-24 01:37 45k
[IMG]JeansonW326H400.jpg2023-02-24 01:37 65k
[IMG]MarinoniPresse27aoutW282H200.jpg2023-02-24 01:37 33k
[IMG]MauriceDuquette116H144.jpg2023-02-24 01:37 20k
[IMG]PB-AutogrW334H400.jpg2023-02-24 01:37 39k
[IMG]PB-phAutogrW256H400.jpg2023-02-24 01:37 45k
[IMG]PB-pieceW536H400www.jpg2023-02-24 01:37 62k
[IMG]PB-TourIle2002w547H400.jpg2023-02-24 01:37 51k
[IMG]PB-VeloW353H400.jpg2023-02-24 01:37 56k
[IMG]podium1998.gif2023-02-24 01:37 50k
[IMG]Presse19jan455H377.jpg2023-02-24 01:37 90k
[IMG]Presse5fevW307H400.jpg2023-02-24 01:37 39k
[IMG]signGenMaillotGilChampouxW240H236www.jpg2023-02-24 01:37 35k
[IMG]victoireMtRoyalW340H400MC.jpg2023-02-24 01:37 55k
Proudly Served by LiteSpeed Web Server at veloptimum.net Port 80